createdAt,value
2018-06-01T00:00:26.968Z,990.88
2018-06-01T00:01:27.070Z,990.85
2018-06-01T00:02:27.173Z,990.86
2018-06-01T00:03:27.273Z,990.90
2018-06-01T00:04:27.378Z,990.94
2018-06-01T00:05:27.489Z,990.96
2018-06-01T00:06:27.588Z,990.95
2018-06-01T00:07:27.687Z,990.94
2018-06-01T00:08:27.792Z,990.97
2018-06-01T00:09:27.929Z,990.99
2018-06-01T00:10:28.030Z,990.97
2018-06-01T00:11:28.151Z,990.97
2018-06-01T00:12:28.233Z,990.97
2018-06-01T00:13:28.355Z,991.00
2018-06-01T00:14:28.446Z,990.95
2018-06-01T00:15:28.549Z,991.00
2018-06-01T00:16:28.653Z,990.96
2018-06-01T00:17:28.756Z,991.00
2018-06-01T00:18:28.855Z,990.97
2018-06-01T00:19:28.962Z,990.95
2018-06-01T00:20:29.068Z,990.95
2018-06-01T00:21:29.168Z,990.98
2018-06-01T00:22:29.300Z,990.96
2018-06-01T00:23:29.373Z,991.00
2018-06-01T00:24:29.475Z,991.04
2018-06-01T00:25:29.577Z,991.07
2018-06-01T00:26:29.679Z,991.01
2018-06-01T00:27:29.781Z,991.04
2018-06-01T00:28:29.885Z,991.10
2018-06-01T00:29:29.987Z,991.09
2018-06-01T00:30:30.095Z,991.13
2018-06-01T00:31:30.193Z,991.13
2018-06-01T00:32:30.299Z,991.16
2018-06-01T00:33:30.403Z,991.16
2018-06-01T00:34:30.511Z,991.16
2018-06-01T00:35:30.606Z,991.19
2018-06-01T00:36:30.729Z,991.17
2018-06-01T00:37:30.812Z,991.16
2018-06-01T00:38:30.911Z,991.18
2018-06-01T00:39:31.012Z,991.16
2018-06-01T00:40:31.114Z,991.20
2018-06-01T00:41:31.215Z,991.21
2018-06-01T00:42:31.327Z,991.20
2018-06-01T00:43:31.431Z,991.18
2018-06-01T00:44:31.532Z,991.20
2018-06-01T00:45:31.642Z,991.20
2018-06-01T00:46:31.735Z,991.18
2018-06-01T00:47:31.835Z,991.22
2018-06-01T00:48:31.947Z,991.23
2018-06-01T00:49:32.038Z,991.18
2018-06-01T00:50:32.138Z,991.21
2018-06-01T00:51:32.242Z,991.21
2018-06-01T00:52:32.344Z,991.21
2018-06-01T00:53:32.445Z,991.22
2018-06-01T00:54:32.549Z,991.15
2018-06-01T00:55:32.654Z,991.12
2018-06-01T00:56:32.747Z,991.10
2018-06-01T00:57:32.855Z,991.12
2018-06-01T00:58:32.952Z,991.15
2018-06-01T00:59:33.055Z,991.14
2018-06-01T01:00:33.158Z,991.14
2018-06-01T01:01:33.256Z,991.10
2018-06-01T01:02:33.358Z,991.17
2018-06-01T01:03:33.460Z,991.16
2018-06-01T01:04:33.565Z,991.18
2018-06-01T01:05:33.667Z,991.13
2018-06-01T01:06:33.770Z,991.14
2018-06-01T01:07:33.874Z,991.12
2018-06-01T01:08:33.980Z,991.11
2018-06-01T01:09:34.080Z,991.09
2018-06-01T01:10:34.175Z,991.08
2018-06-01T01:11:34.272Z,991.08
2018-06-01T01:12:34.373Z,991.10
2018-06-01T01:13:34.507Z,991.09
2018-06-01T01:14:34.568Z,991.10
2018-06-01T01:15:34.670Z,991.15
2018-06-01T01:16:34.777Z,991.20
2018-06-01T01:17:34.872Z,991.20
2018-06-01T01:18:34.974Z,991.25
2018-06-01T01:19:35.077Z,991.20
2018-06-01T01:20:35.178Z,991.25
2018-06-01T01:21:35.280Z,991.22
2018-06-01T01:22:35.383Z,991.25
2018-06-01T01:23:35.496Z,991.22
2018-06-01T01:24:35.589Z,991.24
2018-06-01T01:25:35.689Z,991.24
2018-06-01T01:26:35.790Z,991.24
2018-06-01T01:27:35.895Z,991.25
2018-06-01T01:28:35.997Z,991.27
2018-06-01T01:29:36.103Z,991.28
2018-06-01T01:30:36.194Z,991.28
2018-06-01T01:31:36.293Z,991.32
2018-06-01T01:32:36.407Z,991.30
2018-06-01T01:33:36.511Z,991.29
2018-06-01T01:34:36.613Z,991.30
2018-06-01T01:35:36.717Z,991.24
2018-06-01T01:36:36.822Z,991.31
2018-06-01T01:37:36.923Z,991.30
2018-06-01T01:38:37.019Z,991.29
2018-06-01T01:39:37.118Z,991.31
2018-06-01T01:40:37.221Z,991.33
2018-06-01T01:41:37.325Z,991.30
2018-06-01T01:42:37.428Z,991.29
2018-06-01T01:43:37.528Z,991.31
2018-06-01T01:44:37.628Z,991.32
2018-06-01T01:45:37.732Z,991.29
2018-06-01T01:46:37.831Z,991.26
2018-06-01T01:47:37.930Z,991.31
2018-06-01T01:48:38.035Z,991.28
2018-06-01T01:49:38.136Z,991.28
2018-06-01T01:50:38.238Z,991.30
2018-06-01T01:51:38.339Z,991.35
2018-06-01T01:52:38.440Z,991.35
2018-06-01T01:53:38.546Z,991.44
2018-06-01T01:54:38.643Z,991.45
2018-06-01T01:55:38.743Z,991.46
2018-06-01T01:56:38.838Z,991.44
2018-06-01T01:57:38.975Z,991.43
2018-06-01T01:58:39.072Z,991.43
2018-06-01T01:59:39.225Z,991.46
2018-06-01T02:00:39.389Z,991.47
2018-06-01T02:01:39.463Z,991.47
2018-06-01T02:02:39.608Z,991.50
2018-06-01T02:03:39.630Z,991.48
2018-06-01T02:04:39.747Z,991.45
2018-06-01T02:05:39.907Z,991.49
2018-06-01T02:06:40.039Z,991.49
2018-06-01T02:07:40.034Z,991.53
2018-06-01T02:08:40.123Z,991.50
2018-06-01T02:09:40.245Z,991.54
2018-06-01T02:10:40.349Z,991.53
2018-06-01T02:11:40.531Z,991.52
2018-06-01T02:12:40.762Z,991.49
2018-06-01T02:13:40.610Z,991.48
2018-06-01T02:14:40.805Z,991.44
2018-06-01T02:15:40.953Z,991.43
2018-06-01T02:16:40.965Z,991.40
2018-06-01T02:17:41.126Z,991.40
2018-06-01T02:18:41.093Z,991.42
2018-06-01T02:19:41.216Z,991.43
2018-06-01T02:20:41.307Z,991.44
2018-06-01T02:21:41.598Z,991.44
2018-06-01T02:22:41.618Z,991.51
2018-06-01T02:23:41.785Z,991.52
2018-06-01T02:24:41.900Z,991.54
2018-06-01T02:25:42.032Z,991.52
2018-06-01T02:26:42.219Z,991.53
2018-06-01T02:27:42.219Z,991.44
2018-06-01T02:28:42.328Z,991.46
2018-06-01T02:29:42.482Z,991.41
2018-06-01T02:30:42.487Z,991.36
2018-06-01T02:31:42.693Z,991.36
2018-06-01T02:32:42.843Z,991.30
2018-06-01T02:33:42.885Z,991.30
2018-06-01T02:34:43.028Z,991.31
2018-06-01T02:35:43.132Z,991.27
2018-06-01T02:36:43.308Z,991.25
2018-06-01T02:37:43.293Z,991.22
2018-06-01T02:38:43.497Z,991.21
2018-06-01T02:39:43.611Z,991.18
2018-06-01T02:40:43.697Z,991.19
2018-06-01T02:41:43.832Z,991.18
2018-06-01T02:42:43.959Z,991.16
2018-06-01T02:43:44.052Z,991.16
2018-06-01T02:44:44.162Z,991.19
2018-06-01T02:45:44.333Z,991.24
2018-06-01T02:46:44.480Z,991.21
2018-06-01T02:47:44.566Z,991.29
2018-06-01T02:48:44.748Z,991.34
2018-06-01T02:49:44.731Z,991.38
2018-06-01T02:50:44.815Z,991.36
2018-06-01T02:51:44.909Z,991.34
2018-06-01T02:52:45.074Z,991.34
2018-06-01T02:53:45.051Z,991.35
2018-06-01T02:54:45.157Z,991.34
2018-06-01T02:55:45.293Z,991.35
2018-06-01T02:56:45.426Z,991.32
2018-06-01T02:57:45.508Z,991.32
2018-06-01T02:58:45.661Z,991.30
2018-06-01T02:59:45.857Z,991.40
2018-06-01T03:00:45.898Z,991.43
2018-06-01T03:01:45.869Z,991.42
2018-06-01T03:02:45.990Z,991.48
2018-06-01T03:03:46.100Z,991.50
2018-06-01T03:04:46.218Z,991.57
2018-06-01T03:05:46.334Z,991.59
2018-06-01T03:06:46.400Z,991.67
2018-06-01T03:07:46.508Z,991.70
2018-06-01T03:08:46.620Z,991.69
2018-06-01T03:09:46.757Z,991.70
2018-06-01T03:10:46.845Z,991.71
2018-06-01T03:11:46.940Z,991.68
2018-06-01T03:12:47.294Z,991.73
2018-06-01T03:13:47.151Z,991.72
2018-06-01T03:14:47.274Z,991.74
2018-06-01T03:15:47.373Z,991.76
2018-06-01T03:16:47.493Z,991.79
2018-06-01T03:17:47.624Z,991.75
2018-06-01T03:18:47.723Z,991.79
2018-06-01T03:19:47.819Z,991.77
2018-06-01T03:20:47.906Z,991.76
2018-06-01T03:21:47.991Z,991.77
2018-06-01T03:22:48.098Z,991.77
2018-06-01T03:23:48.199Z,991.75
2018-06-01T03:24:48.319Z,991.75
2018-06-01T03:25:48.411Z,991.76
2018-06-01T03:26:48.493Z,991.73
2018-06-01T03:27:48.608Z,991.74
2018-06-01T03:28:48.788Z,991.68
2018-06-01T03:29:48.755Z,991.70
2018-06-01T03:30:48.859Z,991.60
2018-06-01T03:31:48.978Z,991.63
2018-06-01T03:32:49.077Z,991.61
2018-06-01T03:33:49.228Z,991.66
2018-06-01T03:34:49.385Z,991.64
2018-06-01T03:35:49.519Z,991.57
2018-06-01T03:36:49.624Z,991.51
2018-06-01T03:37:49.719Z,991.52
2018-06-01T03:38:49.850Z,991.46
2018-06-01T03:39:49.971Z,991.52
2018-06-01T03:40:50.061Z,991.54
2018-06-01T03:41:50.294Z,991.61
2018-06-01T03:42:50.291Z,991.64
2018-06-01T03:43:50.388Z,991.64
2018-06-01T03:44:50.491Z,991.61
2018-06-01T03:45:50.579Z,991.65
2018-06-01T03:46:50.677Z,991.56
2018-06-01T03:47:50.769Z,991.51
2018-06-01T03:48:50.869Z,991.51
2018-06-01T03:49:50.991Z,991.54
2018-06-01T03:50:51.138Z,991.51
2018-06-01T03:51:51.250Z,991.51
2018-06-01T03:52:51.399Z,991.54
2018-06-01T03:53:51.499Z,991.54
2018-06-01T03:54:51.592Z,991.52
2018-06-01T03:55:51.690Z,991.55
2018-06-01T03:56:51.795Z,991.52
2018-06-01T03:57:51.890Z,991.53
2018-06-01T03:58:51.987Z,991.53
2018-06-01T03:59:52.088Z,991.52
2018-06-01T04:00:52.193Z,991.48
2018-06-01T04:01:52.296Z,991.52
2018-06-01T04:02:52.432Z,991.46
2018-06-01T04:03:52.504Z,991.42
2018-06-01T04:04:52.603Z,991.41
2018-06-01T04:05:52.753Z,991.35
2018-06-01T04:06:52.852Z,991.36
2018-06-01T04:07:52.952Z,991.33
2018-06-01T04:08:53.055Z,991.33
2018-06-01T04:09:53.156Z,991.32
2018-06-01T04:10:53.259Z,991.34
2018-06-01T04:11:53.362Z,991.34
2018-06-01T04:12:53.464Z,991.27
2018-06-01T04:13:53.560Z,991.32
2018-06-01T04:14:53.671Z,991.29
2018-06-01T04:15:53.769Z,991.26
2018-06-01T04:16:53.869Z,991.25
2018-06-01T04:17:53.971Z,991.26
2018-06-01T04:18:54.072Z,991.31
2018-06-01T04:19:54.179Z,991.32
2018-06-01T04:20:54.281Z,991.31
2018-06-01T04:21:54.385Z,991.30
2018-06-01T04:22:54.486Z,991.32
2018-06-01T04:23:54.588Z,991.25
2018-06-01T04:24:54.691Z,991.24
2018-06-01T04:25:54.798Z,991.28
2018-06-01T04:26:54.896Z,991.29
2018-06-01T04:27:54.997Z,991.24
2018-06-01T04:28:55.099Z,991.26
2018-06-01T04:29:55.202Z,991.31
2018-06-01T04:30:55.304Z,991.30
2018-06-01T04:31:55.408Z,991.28
2018-06-01T04:32:55.514Z,991.30
2018-06-01T04:33:55.620Z,991.32
2018-06-01T04:34:55.720Z,991.36
2018-06-01T04:35:55.824Z,991.39
2018-06-01T04:36:55.926Z,991.41
2018-06-01T04:37:56.029Z,991.45
2018-06-01T04:38:56.132Z,991.48
2018-06-01T04:39:56.234Z,991.48
2018-06-01T04:40:56.335Z,991.55
2018-06-01T04:41:56.441Z,991.59
2018-06-01T04:42:56.545Z,991.59
2018-06-01T04:43:56.646Z,991.57
2018-06-01T04:44:56.754Z,991.58
2018-06-01T04:45:56.854Z,991.62
2018-06-01T04:46:56.956Z,991.64
2018-06-01T04:47:57.075Z,991.60
2018-06-01T04:48:57.177Z,991.60
2018-06-01T04:49:57.281Z,991.64
2018-06-01T04:50:57.384Z,991.64
2018-06-01T04:51:57.489Z,991.63
2018-06-01T04:52:57.586Z,991.63
2018-06-01T04:53:57.689Z,991.64
2018-06-01T04:54:57.791Z,991.63
2018-06-01T04:55:57.891Z,991.63
2018-06-01T04:56:57.998Z,991.65
2018-06-01T04:57:58.106Z,991.69
2018-06-01T04:58:58.203Z,991.67
2018-06-01T04:59:58.307Z,991.69
2018-06-01T05:00:58.410Z,991.68
2018-06-01T05:01:58.516Z,991.73
2018-06-01T05:02:58.622Z,991.68
2018-06-01T05:03:58.724Z,991.72
2018-06-01T05:04:58.825Z,991.73
2018-06-01T05:05:58.932Z,991.79
2018-06-01T05:06:59.034Z,991.81
2018-06-01T05:07:59.137Z,991.83
2018-06-01T05:08:59.238Z,991.81
2018-06-01T05:09:59.339Z,991.79
2018-06-01T05:10:59.445Z,991.81
2018-06-01T05:11:59.547Z,991.82
2018-06-01T05:12:59.650Z,991.83
2018-06-01T05:13:59.751Z,991.81
2018-06-01T05:14:59.876Z,991.83
2018-06-01T05:15:59.977Z,991.79
2018-06-01T05:17:00.069Z,991.79
2018-06-01T05:18:00.182Z,991.86
2018-06-01T05:19:00.288Z,991.81
2018-06-01T05:20:00.396Z,991.84
2018-06-01T05:21:00.496Z,991.87
2018-06-01T05:22:00.600Z,991.86
2018-06-01T05:23:00.706Z,991.85
2018-06-01T05:24:00.806Z,991.83
2018-06-01T05:25:00.910Z,991.83
2018-06-01T05:26:01.016Z,991.83
2018-06-01T05:27:01.116Z,991.84
2018-06-01T05:28:01.221Z,991.81
2018-06-01T05:29:01.324Z,991.84
2018-06-01T05:30:01.432Z,991.83
2018-06-01T05:31:01.548Z,991.82
2018-06-01T05:32:01.636Z,991.86
2018-06-01T05:33:01.741Z,991.86
2018-06-01T05:34:01.847Z,991.89
2018-06-01T05:35:01.955Z,991.88
2018-06-01T05:36:02.059Z,991.93
2018-06-01T05:37:02.164Z,991.97
2018-06-01T05:38:02.273Z,992.03
2018-06-01T05:39:02.380Z,992.08
2018-06-01T05:40:02.482Z,992.08
2018-06-01T05:41:02.586Z,992.15
2018-06-01T05:42:02.698Z,992.14
2018-06-01T05:43:02.796Z,992.21
2018-06-01T05:44:02.902Z,992.18
2018-06-01T05:45:03.005Z,992.21
2018-06-01T05:46:03.109Z,992.21
2018-06-01T05:47:03.212Z,992.23
2018-06-01T05:48:03.316Z,992.24
2018-06-01T05:49:03.421Z,992.28
2018-06-01T05:50:03.522Z,992.28
2018-06-01T05:51:03.624Z,992.30
2018-06-01T05:52:03.730Z,992.27
2018-06-01T05:53:03.828Z,992.30
2018-06-01T05:54:03.968Z,992.31
2018-06-01T05:55:04.040Z,992.33
2018-06-01T05:56:04.143Z,992.36
2018-06-01T05:57:04.250Z,992.35
2018-06-01T05:58:04.355Z,992.36
2018-06-01T05:59:04.458Z,992.37
2018-06-01T06:00:04.566Z,992.39
2018-06-01T06:01:04.669Z,992.30
2018-06-01T06:02:04.775Z,992.27
2018-06-01T06:03:04.888Z,992.29
2018-06-01T06:04:04.990Z,992.32
2018-06-01T06:05:05.097Z,992.36
2018-06-01T06:06:05.212Z,992.37
2018-06-01T06:07:05.328Z,992.41
2018-06-01T06:08:05.435Z,992.46
2018-06-01T06:09:05.540Z,992.42
2018-06-01T06:10:05.736Z,992.52
2018-06-01T06:11:05.812Z,992.56
2018-06-01T06:12:05.925Z,992.57
2018-06-01T06:13:06.082Z,992.57
2018-06-01T06:14:06.173Z,992.60
2018-06-01T06:15:06.367Z,992.59
2018-06-01T06:16:06.349Z,992.63
2018-06-01T06:17:06.792Z,992.61
2018-06-01T06:18:06.644Z,992.49
2018-06-01T06:19:06.631Z,992.44
2018-06-01T06:20:06.730Z,992.39
2018-06-01T06:21:06.840Z,992.38
2018-06-01T06:22:06.955Z,992.47
2018-06-01T06:23:07.280Z,992.46
2018-06-01T06:24:07.138Z,992.46
2018-06-01T06:25:07.246Z,992.38
2018-06-01T06:26:07.473Z,992.44
2018-06-01T06:27:07.451Z,992.41
2018-06-01T06:28:07.793Z,992.46
2018-06-01T06:29:07.727Z,992.42
2018-06-01T06:30:07.732Z,992.43
2018-06-01T06:31:07.837Z,992.48
2018-06-01T06:32:07.985Z,992.36
2018-06-01T06:33:08.147Z,992.44
2018-06-01T06:34:08.295Z,992.47
2018-06-01T06:35:08.330Z,992.47
2018-06-01T06:36:08.464Z,992.53
2018-06-01T06:37:08.667Z,992.55
2018-06-01T06:38:08.656Z,992.58
2018-06-01T06:39:08.882Z,992.56
2018-06-01T06:40:09.001Z,992.53
2018-06-01T06:41:10.151Z,992.60
2018-06-01T06:42:10.833Z,992.59
2018-06-01T06:43:09.420Z,992.59
2018-06-01T06:44:10.742Z,992.63
2018-06-01T06:45:09.541Z,992.65
2018-06-01T06:46:09.469Z,992.71
2018-06-01T06:47:09.944Z,992.71
2018-06-01T06:48:09.705Z,992.70
2018-06-01T06:49:09.814Z,992.61
2018-06-01T06:50:10.005Z,992.65
2018-06-01T06:51:10.388Z,992.62
2018-06-01T06:52:10.231Z,992.62
2018-06-01T06:53:10.168Z,992.66
2018-06-01T06:54:10.857Z,992.64
2018-06-01T06:55:10.654Z,992.67
2018-06-01T06:56:10.818Z,992.67
2018-06-01T06:57:10.775Z,992.65
2018-06-01T06:58:10.888Z,992.67
2018-06-01T06:59:10.962Z,992.63
2018-06-01T07:00:11.064Z,992.75
2018-06-01T07:01:11.298Z,992.73
2018-06-01T07:02:11.397Z,992.75
2018-06-01T07:03:11.833Z,992.78
2018-06-01T07:04:11.521Z,992.79
2018-06-01T07:05:12.036Z,992.80
2018-06-01T07:06:11.913Z,992.78
2018-06-01T07:07:11.918Z,992.81
2018-06-01T07:08:11.838Z,992.82
2018-06-01T07:09:11.997Z,992.83
2018-06-01T07:10:12.095Z,992.85
2018-06-01T07:11:15.248Z,992.86
2018-06-01T07:12:12.513Z,992.92
2018-06-01T07:13:12.352Z,992.85
2018-06-01T07:14:12.571Z,992.91
2018-06-01T07:15:12.845Z,992.89
2018-06-01T07:16:12.843Z,992.88
2018-06-01T07:17:13.054Z,992.90
2018-06-01T07:18:13.140Z,992.95
2018-06-01T07:19:12.973Z,992.92
2018-06-01T07:20:13.622Z,992.92
2018-06-01T07:21:13.648Z,992.95
2018-06-01T07:22:13.274Z,992.93
2018-06-01T07:23:13.500Z,992.95
2018-06-01T07:24:14.122Z,992.94
2018-06-01T07:25:13.540Z,992.93
2018-06-01T07:26:13.524Z,992.95
2018-06-01T07:27:13.680Z,992.99
2018-06-01T07:28:13.999Z,993.01
2018-06-01T07:29:14.076Z,992.99
2018-06-01T07:30:14.065Z,992.98
2018-06-01T07:31:14.138Z,992.97
2018-06-01T07:32:14.072Z,992.98
2018-06-01T07:33:15.141Z,992.98
2018-06-01T07:34:14.422Z,992.98
2018-06-01T07:35:14.428Z,992.96
2018-06-01T07:36:15.211Z,992.97
2018-06-01T07:37:14.440Z,992.97
2018-06-01T07:38:14.624Z,992.99
2018-06-01T07:39:15.141Z,993.01
2018-06-01T07:40:15.183Z,993.01
2018-06-01T07:41:14.785Z,993.01
2018-06-01T07:42:15.985Z,993.08
2018-06-01T07:43:15.353Z,993.08
2018-06-01T07:44:15.234Z,993.06
2018-06-01T07:45:16.996Z,993.00
2018-06-01T07:46:15.438Z,993.05
2018-06-01T07:47:15.397Z,993.06
2018-06-01T07:48:15.504Z,993.04
2018-06-01T07:49:16.763Z,993.07
2018-06-01T07:50:15.809Z,993.08
2018-06-01T07:51:15.787Z,993.09
2018-06-01T07:52:15.975Z,993.11
2018-06-01T07:53:17.344Z,993.09
2018-06-01T07:54:16.368Z,993.06
2018-06-01T07:55:16.240Z,993.09
2018-06-01T07:56:16.182Z,993.05
2018-06-01T07:57:16.410Z,993.06
2018-06-01T07:58:17.861Z,993.09
2018-06-01T07:59:20.277Z,993.09
2018-06-01T08:00:16.728Z,993.06
2018-06-01T08:01:16.665Z,993.04
2018-06-01T08:02:16.774Z,993.09
2018-06-01T08:03:16.969Z,993.08
2018-06-01T08:04:17.003Z,993.06
2018-06-01T08:05:17.122Z,993.08
2018-06-01T08:06:17.261Z,993.07
2018-06-01T08:07:17.378Z,993.08
2018-06-01T08:08:17.479Z,993.09
2018-06-01T08:09:17.575Z,993.10
2018-06-01T08:10:17.687Z,993.17
2018-06-01T08:11:17.815Z,993.13
2018-06-01T08:12:17.925Z,993.18
2018-06-01T08:13:18.088Z,993.15
2018-06-01T08:14:19.451Z,993.20
2018-06-01T08:15:18.761Z,993.20
2018-06-01T08:16:18.467Z,993.22
2018-06-01T08:17:18.471Z,993.21
2018-06-01T08:18:18.529Z,993.22
2018-06-01T08:19:18.694Z,993.22
2018-06-01T08:20:18.995Z,993.22
2018-06-01T08:21:18.943Z,993.18
2018-06-01T08:22:20.583Z,993.25
2018-06-01T08:23:19.064Z,993.25
2018-06-01T08:24:19.049Z,993.21
2018-06-01T08:25:19.296Z,993.25
2018-06-01T08:26:19.333Z,993.23
2018-06-01T08:27:19.364Z,993.29
2018-06-01T08:28:19.461Z,993.31
2018-06-01T08:29:19.547Z,993.33
2018-06-01T08:30:19.709Z,993.34
2018-06-01T08:31:19.847Z,993.28
2018-06-01T08:32:19.977Z,993.29
2018-06-01T08:33:20.115Z,993.27
2018-06-01T08:34:20.335Z,993.31
2018-06-01T08:35:20.681Z,993.30
2018-06-01T08:36:20.489Z,993.35
2018-06-01T08:37:20.551Z,993.37
2018-06-01T08:38:21.075Z,993.36
2018-06-01T08:39:20.778Z,993.38
2018-06-01T08:40:21.098Z,993.40
2018-06-01T08:41:21.118Z,993.39
2018-06-01T08:42:21.226Z,993.39
2018-06-01T08:43:21.190Z,993.38
2018-06-01T08:44:21.412Z,993.39
2018-06-01T08:45:21.730Z,993.40
2018-06-01T08:46:21.519Z,993.36
2018-06-01T08:47:23.937Z,993.36
2018-06-01T08:48:23.028Z,993.34
2018-06-01T08:49:21.759Z,993.42
2018-06-01T08:50:21.866Z,993.40
2018-06-01T08:51:21.963Z,993.41
2018-06-01T08:52:22.081Z,993.46
2018-06-01T08:53:22.242Z,993.46
2018-06-01T08:54:22.401Z,993.38
2018-06-01T08:55:22.504Z,993.43
2018-06-01T08:56:22.625Z,993.42
2018-06-01T08:57:22.755Z,993.37
2018-06-01T08:58:25.309Z,993.44
2018-06-01T08:59:22.919Z,993.45
2018-06-01T09:00:23.244Z,993.44
2018-06-01T09:01:23.160Z,993.46
2018-06-01T09:02:23.400Z,993.44
2018-06-01T09:03:24.299Z,993.45
2018-06-01T09:04:23.532Z,993.44
2018-06-01T09:05:24.315Z,993.47
2018-06-01T09:06:23.855Z,993.43
2018-06-01T09:07:23.821Z,993.44
2018-06-01T09:08:24.411Z,993.43
2018-06-01T09:09:24.600Z,993.44
2018-06-01T09:10:24.226Z,993.49
2018-06-01T09:11:24.453Z,993.47
2018-06-01T09:12:24.364Z,993.47
2018-06-01T09:13:24.432Z,993.43
2018-06-01T09:14:24.461Z,993.40
2018-06-01T09:15:24.580Z,993.43
2018-06-01T09:16:24.896Z,993.41
2018-06-01T09:17:25.049Z,993.46
2018-06-01T09:18:24.906Z,993.46
2018-06-01T09:19:25.011Z,993.50
2018-06-01T09:20:25.133Z,993.45
2018-06-01T09:21:35.989Z,993.47
2018-06-01T09:22:25.310Z,993.49
2018-06-01T09:23:25.413Z,993.47
2018-06-01T09:24:25.572Z,993.48
2018-06-01T09:25:25.658Z,993.48
2018-06-01T09:26:25.990Z,993.43
2018-06-01T09:27:25.976Z,993.45
2018-06-01T09:28:26.081Z,993.47
2018-06-01T09:29:26.053Z,993.47
2018-06-01T09:30:26.161Z,993.45
2018-06-01T09:31:26.264Z,993.42
2018-06-01T09:32:26.372Z,993.45
2018-06-01T09:33:26.480Z,993.46
2018-06-01T09:34:26.623Z,993.49
2018-06-01T09:35:26.693Z,993.55
2018-06-01T09:36:26.797Z,993.50
2018-06-01T09:37:26.899Z,993.49
2018-06-01T09:38:27.005Z,993.50
2018-06-01T09:39:27.108Z,993.49
2018-06-01T09:40:27.211Z,993.53
2018-06-01T09:41:27.315Z,993.55
2018-06-01T09:42:27.423Z,993.51
2018-06-01T09:43:27.527Z,993.53
2018-06-01T09:44:27.632Z,993.51
2018-06-01T09:45:27.736Z,993.49
2018-06-01T09:46:27.836Z,993.54
2018-06-01T09:47:27.939Z,993.48
2018-06-01T09:48:28.039Z,993.50
2018-06-01T09:49:28.128Z,993.51
2018-06-01T09:50:28.243Z,993.51
2018-06-01T09:51:28.348Z,993.53
2018-06-01T09:52:28.449Z,993.50
2018-06-01T09:53:28.555Z,993.49
2018-06-01T09:54:28.661Z,993.56
2018-06-01T09:55:28.769Z,993.50
2018-06-01T09:56:28.872Z,993.55
2018-06-01T09:57:28.972Z,993.47
2018-06-01T09:58:29.077Z,993.46
2018-06-01T09:59:29.183Z,993.48
2018-06-01T10:00:29.286Z,993.44
2018-06-01T10:01:29.393Z,993.40
2018-06-01T10:02:29.498Z,993.38
2018-06-01T10:03:29.655Z,993.37
2018-06-01T10:04:29.746Z,993.41
2018-06-01T10:05:29.850Z,993.36
2018-06-01T10:06:29.960Z,993.43
2018-06-01T10:07:30.070Z,993.38
2018-06-01T10:08:30.173Z,993.37
2018-06-01T10:09:30.282Z,993.36
2018-06-01T10:10:30.387Z,993.34
2018-06-01T10:11:30.503Z,993.34
2018-06-01T10:12:30.592Z,993.35
2018-06-01T10:13:30.696Z,993.37
2018-06-01T10:14:30.803Z,993.38
2018-06-01T10:15:30.949Z,993.33
2018-06-01T10:16:31.015Z,993.37
2018-06-01T10:17:31.125Z,993.42
2018-06-01T10:18:31.246Z,993.45
2018-06-01T10:19:31.350Z,993.50
2018-06-01T10:20:31.455Z,993.52
2018-06-01T10:21:31.560Z,993.50
2018-06-01T10:22:31.668Z,993.51
2018-06-01T10:23:31.771Z,993.53
2018-06-01T10:24:31.957Z,993.46
2018-06-01T10:25:32.017Z,993.48
2018-06-01T10:26:32.187Z,993.43
2018-06-01T10:27:32.231Z,993.46
2018-06-01T10:28:32.355Z,993.44
2018-06-01T10:29:32.459Z,993.41
2018-06-01T10:30:32.567Z,993.40
2018-06-01T10:31:36.154Z,993.40
2018-06-01T10:32:32.787Z,993.44
2018-06-01T10:33:32.887Z,993.44
2018-06-01T10:34:32.992Z,993.47
2018-06-01T10:35:33.100Z,993.48
2018-06-01T10:36:33.206Z,993.48
2018-06-01T10:37:33.317Z,993.48
2018-06-01T10:38:33.417Z,993.48
2018-06-01T10:39:33.539Z,993.55
2018-06-01T10:40:33.628Z,993.42
2018-06-01T10:41:33.724Z,993.46
2018-06-01T10:42:33.825Z,993.39
2018-06-01T10:43:33.934Z,993.35
2018-06-01T10:44:34.039Z,993.35
2018-06-01T10:45:34.141Z,993.37
2018-06-01T10:46:34.248Z,993.35
2018-06-01T10:47:34.352Z,993.38
2018-06-01T10:48:34.442Z,993.36
2018-06-01T10:49:34.584Z,993.36
2018-06-01T10:50:34.706Z,993.36
2018-06-01T10:51:34.723Z,993.40
2018-06-01T10:52:34.829Z,993.42
2018-06-01T10:53:34.937Z,993.42
2018-06-01T10:54:35.042Z,993.35
2018-06-01T10:55:35.142Z,993.43
2018-06-01T10:56:35.246Z,993.43
2018-06-01T10:57:35.353Z,993.44
2018-06-01T10:58:35.455Z,993.37
2018-06-01T10:59:35.562Z,993.44
2018-06-01T11:00:35.667Z,993.41
2018-06-01T11:01:35.795Z,993.37
2018-06-01T11:02:35.883Z,993.42
2018-06-01T11:03:35.990Z,993.38
2018-06-01T11:04:36.097Z,993.39
2018-06-01T11:05:36.204Z,993.42
2018-06-01T11:06:36.315Z,993.32
2018-06-01T11:07:36.421Z,993.37
2018-06-01T11:08:36.526Z,993.32
2018-06-01T11:09:36.639Z,993.29
2018-06-01T11:10:36.747Z,993.31
2018-06-01T11:11:36.851Z,993.35
2018-06-01T11:12:36.962Z,993.44
2018-06-01T11:13:37.069Z,993.38
2018-06-01T11:14:37.176Z,993.41
2018-06-01T11:15:37.287Z,993.44
2018-06-01T11:16:37.396Z,993.41
2018-06-01T11:17:37.498Z,993.43
2018-06-01T11:18:37.608Z,993.35
2018-06-01T11:19:37.713Z,993.37
2018-06-01T11:20:37.820Z,993.39
2018-06-01T11:21:38.004Z,993.34
2018-06-01T11:22:38.032Z,993.38
2018-06-01T11:23:38.141Z,993.37
2018-06-01T11:24:38.251Z,993.38
2018-06-01T11:25:38.352Z,993.38
2018-06-01T11:26:38.464Z,993.38
2018-06-01T11:27:38.570Z,993.38
2018-06-01T11:28:38.678Z,993.39
2018-06-01T11:29:38.793Z,993.40
2018-06-01T11:30:38.897Z,993.38
2018-06-01T11:31:38.999Z,993.41
2018-06-01T11:32:39.108Z,993.31
2018-06-01T11:33:40.263Z,993.35
2018-06-01T11:34:39.365Z,993.33
2018-06-01T11:35:39.516Z,993.41
2018-06-01T11:36:39.694Z,993.39
2018-06-01T11:37:39.706Z,993.39
2018-06-01T11:38:40.067Z,993.34
2018-06-01T11:39:39.964Z,993.34
2018-06-01T11:40:40.050Z,993.29
2018-06-01T11:41:40.171Z,993.35
2018-06-01T11:42:40.254Z,993.34
2018-06-01T11:43:40.247Z,993.34
2018-06-01T11:44:40.358Z,993.34
2018-06-01T11:45:40.483Z,993.38
2018-06-01T11:46:40.591Z,993.38
2018-06-01T11:47:40.668Z,993.46
2018-06-01T11:48:40.769Z,993.42
2018-06-01T11:49:40.991Z,993.39
2018-06-01T11:50:40.996Z,993.33
2018-06-01T11:51:41.120Z,993.27
2018-06-01T11:52:41.241Z,993.27
2018-06-01T11:53:41.352Z,993.25
2018-06-01T11:54:41.547Z,993.29
2018-06-01T11:55:41.579Z,993.24
2018-06-01T11:56:41.766Z,993.28
2018-06-01T11:57:41.762Z,993.26
2018-06-01T11:58:41.906Z,993.27
2018-06-01T11:59:42.011Z,993.21
2018-06-01T12:00:42.120Z,993.16
2018-06-01T12:01:42.274Z,993.09
2018-06-01T12:02:42.330Z,993.07
2018-06-01T12:03:42.471Z,993.13
2018-06-01T12:04:42.585Z,993.07
2018-06-01T12:05:42.733Z,993.10
2018-06-01T12:06:42.754Z,993.07
2018-06-01T12:07:42.873Z,992.96
2018-06-01T12:08:42.967Z,992.95
2018-06-01T12:09:43.061Z,992.94
2018-06-01T12:10:43.200Z,992.95
2018-06-01T12:11:43.304Z,992.97
2018-06-01T12:12:43.429Z,992.92
2018-06-01T12:13:43.539Z,992.94
2018-06-01T12:14:43.665Z,992.90
2018-06-01T12:15:43.793Z,992.92
2018-06-01T12:16:43.901Z,992.87
2018-06-01T12:17:44.140Z,992.88
2018-06-01T12:18:44.071Z,992.91
2018-06-01T12:19:44.191Z,992.95
2018-06-01T12:20:44.292Z,992.96
2018-06-01T12:21:44.475Z,992.94
2018-06-01T12:22:44.574Z,992.89
2018-06-01T12:23:44.747Z,992.93
2018-06-01T12:24:44.784Z,992.97
2018-06-01T12:25:44.789Z,992.99
2018-06-01T12:26:44.888Z,992.95
2018-06-01T12:27:44.979Z,992.97
2018-06-01T12:28:45.104Z,993.01
2018-06-01T12:29:45.252Z,992.94